Time;durP1;ratioP1;P1;durP2;ratioP2;P2;SDS_P1;SDS_P2;PMS_P1;PMS_P2;Temp;Humidity;BMP_temperature;BMP_pressure;BME280_temperature;BME280_humidity;BME280_pressure;Samples;Min_cycle;Max_cycle;Signal;HPM_P1;HPM_P2
2023/04/06 00:01:16;;;;;;;10.43;5.57;;;;;;;;;;5035262;28;20478;-80
2023/04/06 00:03:42;;;;;;;9.50;5.90;;;;;;;;;;5015325;28;20069;-80
2023/04/06 00:06:07;;;;;;;9.85;5.68;;;;;;;;;;5026603;28;20018;-80
2023/04/06 00:08:32;;;;;;;9.10;5.57;;;;;;;;;;5037435;28;20014;-80
2023/04/06 00:10:58;;;;;;;9.73;5.88;;;;;;;;;;5036715;28;20090;-80
2023/04/06 00:13:23;;;;;;;11.77;6.28;;;;;;;;;;5018316;28;20061;-80
2023/04/06 00:15:49;;;;;;;8.80;5.43;;;;;;;;;;5018078;28;20048;-80
2023/04/06 00:18:15;;;;;;;9.80;5.72;;;;;;;;;;5035456;28;20566;-80
2023/04/06 00:20:40;;;;;;;10.63;5.63;;;;;;;;;;5036332;28;20010;-81
2023/04/06 00:23:05;;;;;;;14.07;5.93;;;;;;;;;;5034681;28;20025;-80
2023/04/06 00:25:31;;;;;;;10.75;5.30;;;;;;;;;;5032521;28;20014;-80
2023/04/06 00:27:56;;;;;;;9.95;5.22;;;;;;;;;;5031632;28;20041;-80
2023/04/06 00:30:22;;;;;;;10.20;5.78;;;;;;;;;;5035072;28;20056;-80
2023/04/06 00:32:47;;;;;;;9.20;5.13;;;;;;;;;;5026585;28;20117;-80
2023/04/06 00:35:13;;;;;;;9.73;5.45;;;;;;;;;;5025916;28;20061;-80
2023/04/06 00:37:38;;;;;;;9.00;5.15;;;;;;;;;;5030700;28;20018;-80
2023/04/06 00:40:04;;;;;;;8.52;5.25;;;;;;;;;;5009473;28;20026;-80
2023/04/06 00:42:30;;;;;;;9.02;5.50;;;;;;;;;;5031546;28;20030;-80
2023/04/06 00:44:57;;;;;;;10.00;4.82;;;;;;;;;;5022007;28;20002;-80
2023/04/06 00:47:25;;;;;;;8.80;5.40;;;;;;;;;;5032894;28;20014;-80
2023/04/06 00:49:51;;;;;;;8.10;4.85;;;;;;;;;;5033958;28;20026;-80
2023/04/06 00:52:16;;;;;;;9.88;5.13;;;;;;;;;;5031076;28;20037;-80
2023/04/06 00:54:42;;;;;;;11.55;5.57;;;;;;;;;;5017205;28;20060;-80
2023/04/06 00:57:07;;;;;;;9.82;5.40;;;;;;;;;;5019600;28;20040;-81
2023/04/06 00:59:33;;;;;;;9.70;5.32;;;;;;;;;;5031705;28;20041;-81
2023/04/06 01:01:58;;;;;;;9.80;5.18;;;;;;;;;;5031327;28;20017;-81
2023/04/06 01:04:24;;;;;;;11.32;5.38;;;;;;;;;;5028422;28;20037;-80
2023/04/06 01:06:50;;;;;;;10.70;5.78;;;;;;;;;;5031700;28;20056;-81
2023/04/06 01:09:16;;;;;;;11.32;5.30;;;;;;;;;;5026397;28;20017;-80
2023/04/06 01:11:41;;;;;;;9.63;5.78;;;;;;;;;;5016237;28;20030;-81
2023/04/06 01:14:07;;;;;;;10.98;5.65;;;;;;;;;;5030112;28;20029;-80
2023/04/06 01:16:33;;;;;;;9.00;5.53;;;;;;;;;;5029161;28;20089;-80
2023/04/06 01:18:59;;;;;;;11.25;6.00;;;;;;;;;;5031794;28;20040;-80
2023/04/06 01:21:25;;;;;;;10.90;5.90;;;;;;;;;;5033070;28;20057;-80
2023/04/06 01:23:50;;;;;;;11.45;6.25;;;;;;;;;;5018926;28;20056;-80
2023/04/06 01:26:15;;;;;;;12.52;6.20;;;;;;;;;;5036495;28;20037;-80
2023/04/06 01:28:41;;;;;;;10.25;6.00;;;;;;;;;;5025718;28;20018;-80
2023/04/06 01:31:08;;;;;;;13.10;5.85;;;;;;;;;;5031285;28;20030;-80
2023/04/06 01:33:33;;;;;;;11.05;5.93;;;;;;;;;;5032857;28;20040;-80
2023/04/06 01:35:59;;;;;;;11.50;5.55;;;;;;;;;;5031773;28;20033;-80
2023/04/06 01:38:26;;;;;;;12.85;6.43;;;;;;;;;;5005976;28;20016;-80
2023/04/06 01:40:51;;;;;;;10.98;5.95;;;;;;;;;;5030283;28;20026;-80
2023/04/06 01:43:17;;;;;;;12.52;6.32;;;;;;;;;;5027856;28;21351;-80
2023/04/06 01:45:42;;;;;;;12.48;6.40;;;;;;;;;;5011469;28;20045;-80
2023/04/06 01:48:08;;;;;;;11.75;6.40;;;;;;;;;;5033947;28;20115;-80
2023/04/06 01:50:33;;;;;;;11.68;6.57;;;;;;;;;;5013139;28;20034;-80
2023/04/06 01:52:58;;;;;;;13.50;6.80;;;;;;;;;;5007287;28;20048;-80
2023/04/06 01:55:24;;;;;;;13.88;6.72;;;;;;;;;;5031183;28;20033;-80
2023/04/06 01:57:49;;;;;;;10.65;6.32;;;;;;;;;;5012242;28;20036;-80
2023/04/06 02:00:15;;;;;;;12.32;6.65;;;;;;;;;;5013078;28;20006;-80
2023/04/06 02:02:41;;;;;;;11.40;6.65;;;;;;;;;;5006515;28;20014;-80
2023/04/06 02:05:07;;;;;;;12.02;6.47;;;;;;;;;;5027059;28;20032;-80
2023/04/06 02:07:32;;;;;;;12.98;6.32;;;;;;;;;;5013265;28;20038;-80
2023/04/06 02:09:58;;;;;;;11.20;6.03;;;;;;;;;;5030905;28;20025;-80
2023/04/06 02:12:23;;;;;;;11.43;6.32;;;;;;;;;;5028923;28;20034;-80
2023/04/06 02:14:49;;;;;;;12.82;6.43;;;;;;;;;;5015089;28;20038;-80
2023/04/06 02:17:14;;;;;;;11.93;6.25;;;;;;;;;;5028355;28;20105;-80
2023/04/06 02:19:40;;;;;;;12.77;5.63;;;;;;;;;;5016532;28;20064;-80
2023/04/06 02:22:05;;;;;;;11.25;6.28;;;;;;;;;;5012037;28;20036;-80
2023/04/06 02:24:31;;;;;;;11.75;6.38;;;;;;;;;;5027365;28;20060;-80
2023/04/06 02:26:56;;;;;;;10.63;5.60;;;;;;;;;;4995193;28;20029;-80
2023/04/06 02:29:22;;;;;;;9.95;5.65;;;;;;;;;;5031083;28;20029;-80
2023/04/06 02:31:47;;;;;;;10.98;6.05;;;;;;;;;;5010512;28;20033;-80
2023/04/06 02:34:17;;;;;;;13.05;6.60;;;;;;;;;;5024337;28;20017;-80
2023/04/06 02:36:44;;;;;;;9.80;5.40;;;;;;;;;;5012281;28;20076;-80
2023/04/06 02:39:10;;;;;;;11.82;6.53;;;;;;;;;;5026977;28;20053;-80
2023/04/06 02:41:35;;;;;;;12.57;7.05;;;;;;;;;;5028220;28;20028;-80
2023/04/06 02:44:00;;;;;;;11.77;6.88;;;;;;;;;;5026115;28;20026;-80
2023/04/06 02:46:26;;;;;;;11.25;6.65;;;;;;;;;;5009038;28;20047;-80
2023/04/06 02:48:51;;;;;;;12.40;6.95;;;;;;;;;;5027675;28;20030;-80
2023/04/06 02:51:17;;;;;;;12.38;7.32;;;;;;;;;;5030419;28;20029;-80
2023/04/06 02:53:42;;;;;;;14.95;7.40;;;;;;;;;;5013142;28;20060;-80
2023/04/06 02:56:07;;;;;;;14.55;7.13;;;;;;;;;;5027257;28;20018;-81
2023/04/06 02:58:33;;;;;;;12.82;7.28;;;;;;;;;;5011020;28;20049;-80
2023/04/06 03:00:58;;;;;;;12.05;7.22;;;;;;;;;;5011493;28;20026;-80
2023/04/06 03:03:24;;;;;;;14.77;7.97;;;;;;;;;;5026580;28;20037;-80
2023/04/06 03:05:49;;;;;;;14.70;8.52;;;;;;;;;;5025305;28;20046;-80
2023/04/06 03:08:15;;;;;;;14.45;8.10;;;;;;;;;;5010850;28;20037;-80
2023/04/06 03:10:40;;;;;;;15.88;8.25;;;;;;;;;;5001836;28;20104;-80
2023/04/06 03:13:06;;;;;;;19.05;8.35;;;;;;;;;;5026303;28;20057;-80
2023/04/06 03:15:31;;;;;;;16.58;8.48;;;;;;;;;;5008716;28;20036;-80
2023/04/06 03:17:57;;;;;;;14.07;8.00;;;;;;;;;;5010406;28;20038;-81
2023/04/06 03:20:23;;;;;;;14.15;7.95;;;;;;;;;;5010715;28;20164;-80
2023/04/06 03:22:48;;;;;;;15.15;8.00;;;;;;;;;;5006775;28;20030;-80
2023/04/06 03:25:14;;;;;;;14.95;7.90;;;;;;;;;;5007432;28;20038;-80
2023/04/06 03:27:40;;;;;;;15.52;8.52;;;;;;;;;;5026998;28;20049;-80
2023/04/06 03:30:06;;;;;;;15.65;8.43;;;;;;;;;;5007825;28;20038;-80
2023/04/06 03:32:31;;;;;;;14.27;7.55;;;;;;;;;;5025080;28;20026;-80
2023/04/06 03:34:57;;;;;;;13.77;7.63;;;;;;;;;;5007590;28;20030;-80
2023/04/06 03:37:22;;;;;;;16.15;7.78;;;;;;;;;;5022193;28;20038;-80
2023/04/06 03:39:48;;;;;;;13.20;7.70;;;;;;;;;;5023120;28;20025;-80
2023/04/06 03:42:13;;;;;;;15.88;8.23;;;;;;;;;;5005478;28;20067;-80
2023/04/06 03:44:38;;;;;;;14.68;7.97;;;;;;;;;;5005107;28;20037;-80
2023/04/06 03:47:04;;;;;;;17.17;9.15;;;;;;;;;;5024205;28;20500;-80
2023/04/06 03:49:30;;;;;;;14.88;8.35;;;;;;;;;;5006702;28;20037;-80
2023/04/06 03:51:56;;;;;;;15.75;8.45;;;;;;;;;;5005837;28;20022;-80
2023/04/06 03:54:21;;;;;;;14.68;8.23;;;;;;;;;;5018661;28;20026;-79
2023/04/06 03:56:47;;;;;;;17.02;9.45;;;;;;;;;;5012788;28;20026;-78
2023/04/06 03:59:12;;;;;;;15.60;9.10;;;;;;;;;;5006877;28;20053;-78
2023/04/06 04:01:39;;;;;;;18.35;9.10;;;;;;;;;;4997904;28;20060;-80
2023/04/06 04:04:04;;;;;;;17.10;9.02;;;;;;;;;;4986246;28;20022;-78
2023/04/06 04:06:30;;;;;;;15.13;9.32;;;;;;;;;;4991024;28;20083;-79
2023/04/06 04:08:55;;;;;;;16.80;8.50;;;;;;;;;;4997444;28;20030;-78
2023/04/06 04:11:21;;;;;;;16.83;8.68;;;;;;;;;;4999001;28;20022;-78
2023/04/06 04:13:46;;;;;;;14.60;8.32;;;;;;;;;;5016549;28;20394;-79
2023/04/06 04:16:12;;;;;;;15.07;8.55;;;;;;;;;;4998793;28;20041;-81
2023/04/06 04:18:37;;;;;;;16.08;9.13;;;;;;;;;;5014203;28;20037;-77
2023/04/06 04:21:02;;;;;;;16.90;9.02;;;;;;;;;;5006335;28;20113;-78
2023/04/06 04:23:28;;;;;;;15.80;8.90;;;;;;;;;;5010859;28;20065;-78
2023/04/06 04:25:53;;;;;;;15.35;8.63;;;;;;;;;;4991215;28;20038;-78
2023/04/06 04:28:18;;;;;;;18.98;9.00;;;;;;;;;;5013818;28;20026;-78
2023/04/06 04:30:44;;;;;;;15.07;8.95;;;;;;;;;;5007471;28;20466;-78
2023/04/06 04:33:09;;;;;;;14.65;9.02;;;;;;;;;;4988054;28;20045;-79
2023/04/06 04:35:35;;;;;;;16.10;8.80;;;;;;;;;;5011145;28;20022;-80
2023/04/06 04:38:00;;;;;;;17.23;9.48;;;;;;;;;;5010596;28;20505;-79
2023/04/06 04:40:25;;;;;;;16.17;9.18;;;;;;;;;;5012432;28;20083;-78
2023/04/06 04:42:51;;;;;;;15.35;9.00;;;;;;;;;;5010533;28;20109;-80
2023/04/06 04:45:16;;;;;;;15.20;9.50;;;;;;;;;;5000565;28;20033;-81
2023/04/06 04:47:42;;;;;;;16.48;8.85;;;;;;;;;;4992095;28;20026;-78
2023/04/06 04:50:07;;;;;;;16.63;9.20;;;;;;;;;;4990086;28;20060;-79
2023/04/06 04:52:33;;;;;;;14.13;9.13;;;;;;;;;;5010494;28;20041;-78
2023/04/06 04:54:58;;;;;;;17.08;9.88;;;;;;;;;;5014516;28;20037;-78
2023/04/06 04:57:24;;;;;;;19.58;10.55;;;;;;;;;;5012559;28;20112;-79
2023/04/06 04:59:50;;;;;;;15.43;9.25;;;;;;;;;;5008989;28;20478;-78
2023/04/06 05:02:16;;;;;;;18.38;9.52;;;;;;;;;;5010091;28;20109;-78
2023/04/06 05:04:41;;;;;;;16.80;9.45;;;;;;;;;;4995515;28;20132;-78
2023/04/06 05:07:08;;;;;;;16.13;9.00;;;;;;;;;;4995128;28;20018;-78
2023/04/06 05:09:34;;;;;;;14.15;8.63;;;;;;;;;;4991025;28;20477;-78
2023/04/06 05:12:00;;;;;;;16.00;9.23;;;;;;;;;;4996632;28;20026;-78
2023/04/06 05:14:26;;;;;;;17.05;9.57;;;;;;;;;;5012806;28;20033;-78
2023/04/06 05:16:52;;;;;;;15.95;9.68;;;;;;;;;;4994425;28;20061;-78
2023/04/06 05:19:17;;;;;;;19.25;10.50;;;;;;;;;;5011382;28;20057;-81
2023/04/06 05:21:43;;;;;;;17.83;9.70;;;;;;;;;;5011268;28;20029;-78
2023/04/06 05:24:08;;;;;;;16.95;10.00;;;;;;;;;;5013670;28;20034;-78
2023/04/06 05:26:34;;;;;;;19.33;9.77;;;;;;;;;;4991362;28;20037;-78
2023/04/06 05:29:00;;;;;;;17.35;9.48;;;;;;;;;;4991502;28;20017;-78
2023/04/06 05:31:25;;;;;;;17.52;9.98;;;;;;;;;;5002988;28;20034;-78
2023/04/06 05:33:50;;;;;;;16.70;9.18;;;;;;;;;;5009759;28;20021;-77
2023/04/06 05:36:16;;;;;;;17.63;9.70;;;;;;;;;;5007547;28;20018;-78
2023/04/06 05:38:41;;;;;;;16.08;9.63;;;;;;;;;;5011678;28;20053;-78
2023/04/06 05:41:07;;;;;;;18.08;11.07;;;;;;;;;;5009144;28;20573;-79
2023/04/06 05:43:32;;;;;;;18.38;9.82;;;;;;;;;;5011319;28;20088;-78
2023/04/06 05:45:57;;;;;;;19.75;11.63;;;;;;;;;;5010407;28;20331;-78
2023/04/06 05:48:23;;;;;;;17.90;10.20;;;;;;;;;;5014717;28;20033;-78
2023/04/06 05:50:53;;;;;;;17.00;10.32;;;;;;;;;;4991598;28;20033;-78
2023/04/06 05:53:18;;;;;;;18.63;9.85;;;;;;;;;;4987713;28;20576;-78
2023/04/06 05:55:43;;;;;;;16.33;9.18;;;;;;;;;;4992690;28;20030;-78
2023/04/06 05:58:09;;;;;;;18.23;9.75;;;;;;;;;;5012527;28;20041;-78
2023/04/06 06:00:35;;;;;;;17.27;9.63;;;;;;;;;;4989254;28;20030;-78
2023/04/06 06:03:03;;;;;;;18.95;10.45;;;;;;;;;;5007128;28;20036;-78
2023/04/06 06:05:29;;;;;;;21.35;10.32;;;;;;;;;;5011026;28;20474;-79
2023/04/06 06:07:54;;;;;;;16.50;9.77;;;;;;;;;;4995806;28;20026;-78
2023/04/06 06:10:20;;;;;;;18.13;10.10;;;;;;;;;;4994476;28;20044;-79
2023/04/06 06:12:45;;;;;;;20.42;10.07;;;;;;;;;;4992760;28;20041;-78
2023/04/06 06:15:11;;;;;;;19.48;9.88;;;;;;;;;;5011396;28;20108;-79
2023/04/06 06:17:37;;;;;;;16.30;10.35;;;;;;;;;;5010230;28;20037;-77
2023/04/06 06:20:03;;;;;;;15.30;9.85;;;;;;;;;;4993257;28;20030;-78
2023/04/06 06:22:28;;;;;;;18.75;10.25;;;;;;;;;;4990094;28;20087;-78
2023/04/06 06:24:54;;;;;;;16.48;10.20;;;;;;;;;;5012852;28;20075;-78
2023/04/06 06:27:19;;;;;;;18.75;9.63;;;;;;;;;;5005530;28;20026;-79
2023/04/06 06:29:45;;;;;;;15.75;9.52;;;;;;;;;;5010236;28;20125;-78
2023/04/06 06:32:10;;;;;;;19.30;10.68;;;;;;;;;;4992372;28;20021;-80
2023/04/06 06:34:36;;;;;;;19.50;9.60;;;;;;;;;;4989344;28;20026;-78
2023/04/06 06:37:02;;;;;;;17.65;10.80;;;;;;;;;;4985404;28;20113;-80
2023/04/06 06:39:28;;;;;;;15.35;9.63;;;;;;;;;;4995354;28;20448;-78
2023/04/06 06:41:55;;;;;;;18.17;10.07;;;;;;;;;;5007158;28;20076;-78
2023/04/06 06:44:21;;;;;;;16.33;10.02;;;;;;;;;;4994256;28;20390;-77
2023/04/06 06:46:47;;;;;;;14.68;9.80;;;;;;;;;;4994341;28;20088;-77
2023/04/06 06:49:12;;;;;;;15.85;9.63;;;;;;;;;;4992408;28;20022;-77
2023/04/06 06:51:37;;;;;;;17.52;9.88;;;;;;;;;;4971647;28;20033;-78
2023/04/06 06:54:03;;;;;;;18.73;9.93;;;;;;;;;;5010888;28;20394;-78
2023/04/06 06:56:28;;;;;;;16.67;10.55;;;;;;;;;;4991725;28;20125;-78
2023/04/06 06:58:54;;;;;;;16.83;10.25;;;;;;;;;;4991259;28;20037;-77
2023/04/06 07:01:20;;;;;;;17.90;10.75;;;;;;;;;;4974264;28;20026;-78
2023/04/06 07:03:45;;;;;;;17.30;10.07;;;;;;;;;;4985625;28;20462;-78
2023/04/06 07:06:10;;;;;;;19.45;10.13;;;;;;;;;;5008099;28;20030;-79
2023/04/06 07:08:36;;;;;;;18.80;11.05;;;;;;;;;;4992966;28;20473;-78
2023/04/06 07:11:01;;;;;;;18.10;10.02;;;;;;;;;;4991715;28;20021;-78
2023/04/06 07:13:27;;;;;;;15.27;10.27;;;;;;;;;;4990452;28;20103;-79
2023/04/06 07:15:53;;;;;;;18.63;11.32;;;;;;;;;;4992582;28;20029;-78
2023/04/06 07:18:19;;;;;;;18.52;11.00;;;;;;;;;;4987235;28;20042;-78
2023/04/06 07:20:45;;;;;;;19.00;10.43;;;;;;;;;;5009584;28;20022;-80
2023/04/06 07:23:10;;;;;;;16.65;10.07;;;;;;;;;;4990944;28;20627;-79
2023/04/06 07:25:36;;;;;;;17.63;10.77;;;;;;;;;;5009904;28;20029;-79
2023/04/06 07:28:03;;;;;;;19.42;11.18;;;;;;;;;;5010550;28;20035;-78
2023/04/06 07:30:28;;;;;;;20.30;10.88;;;;;;;;;;4994658;28;20157;-78
2023/04/06 07:32:55;;;;;;;17.30;9.73;;;;;;;;;;4997112;28;20041;-78
2023/04/06 07:35:21;;;;;;;23.25;11.05;;;;;;;;;;5016806;28;20028;-78
2023/04/06 07:37:46;;;;;;;18.05;10.15;;;;;;;;;;5012712;28;20482;-78
2023/04/06 07:40:11;;;;;;;20.67;10.85;;;;;;;;;;4993749;28;20034;-79
2023/04/06 07:42:37;;;;;;;20.02;10.90;;;;;;;;;;4996097;28;20048;-80
2023/04/06 07:45:03;;;;;;;16.67;10.45;;;;;;;;;;5010979;28;20058;-80
2023/04/06 07:47:29;;;;;;;19.15;11.65;;;;;;;;;;5015822;28;20037;-81
2023/04/06 07:49:55;;;;;;;19.33;11.10;;;;;;;;;;4996055;28;20026;-78
2023/04/06 07:52:21;;;;;;;18.38;11.05;;;;;;;;;;5013410;28;20108;-78
2023/04/06 07:54:48;;;;;;;18.33;11.07;;;;;;;;;;4996416;28;20132;-78
2023/04/06 07:57:13;;;;;;;20.05;11.50;;;;;;;;;;4998127;28;20474;-78
2023/04/06 07:59:39;;;;;;;21.80;11.20;;;;;;;;;;4994036;28;20099;-80
2023/04/06 08:02:05;;;;;;;21.20;11.13;;;;;;;;;;5012702;28;20030;-79
2023/04/06 08:04:30;;;;;;;17.55;10.40;;;;;;;;;;4993291;28;20208;-78
2023/04/06 08:06:56;;;;;;;21.33;11.85;;;;;;;;;;4994726;28;20116;-78
2023/04/06 08:09:21;;;;;;;18.17;11.63;;;;;;;;;;5008568;28;20033;-78
2023/04/06 08:11:48;;;;;;;19.45;11.07;;;;;;;;;;5015247;28;20144;-78
2023/04/06 08:14:15;;;;;;;19.63;10.95;;;;;;;;;;5013942;28;20025;-78
2023/04/06 08:16:40;;;;;;;17.27;10.05;;;;;;;;;;4989624;28;20026;-78
2023/04/06 08:19:09;;;;;;;18.15;10.85;;;;;;;;;;5015472;28;20037;-78
2023/04/06 08:21:34;;;;;;;19.73;10.98;;;;;;;;;;4991361;28;20033;-78
2023/04/06 08:24:00;;;;;;;21.33;11.48;;;;;;;;;;4995379;28;20103;-78
2023/04/06 08:26:26;;;;;;;20.60;11.52;;;;;;;;;;5010712;28;20029;-77
2023/04/06 08:28:51;;;;;;;21.80;11.70;;;;;;;;;;5011324;28;20096;-78
2023/04/06 08:31:16;;;;;;;18.70;11.75;;;;;;;;;;5013029;28;20033;-79
2023/04/06 08:33:42;;;;;;;20.80;11.55;;;;;;;;;;5014621;28;20121;-79
2023/04/06 08:36:12;;;;;;;19.02;10.98;;;;;;;;;;5011225;28;20036;-79
2023/04/06 08:38:38;;;;;;;24.65;10.50;;;;;;;;;;4990805;28;20022;-78
2023/04/06 08:41:11;;;;;;;20.58;10.60;;;;;;;;;;5011184;28;20026;-79
2023/04/06 08:43:43;;;;;;;19.80;10.88;;;;;;;;;;5009268;28;20030;-79
2023/04/06 08:46:09;;;;;;;18.50;10.68;;;;;;;;;;4996596;28;20381;-79
2023/04/06 08:48:35;;;;;;;22.90;10.85;;;;;;;;;;4996358;28;20045;-79
2023/04/06 08:51:02;;;;;;;17.42;10.73;;;;;;;;;;5009551;28;21698;-78
2023/04/06 08:53:28;;;;;;;18.17;11.07;;;;;;;;;;4995648;28;20121;-79
2023/04/06 08:55:55;;;;;;;21.92;11.82;;;;;;;;;;5010913;28;20104;-79
2023/04/06 08:58:22;;;;;;;18.48;10.57;;;;;;;;;;4995199;28;20506;-78
2023/04/06 09:00:48;;;;;;;21.20;10.57;;;;;;;;;;5014132;28;20057;-79
2023/04/06 09:03:14;;;;;;;20.23;10.73;;;;;;;;;;4997014;28;20559;-78
2023/04/06 09:05:40;;;;;;;18.50;9.98;;;;;;;;;;5013434;28;20013;-79
2023/04/06 09:08:05;;;;;;;18.40;11.25;;;;;;;;;;4994900;28;20385;-79
2023/04/06 09:10:32;;;;;;;23.58;10.90;;;;;;;;;;5013188;28;20126;-78
2023/04/06 09:13:08;;;;;;;17.52;10.40;;;;;;;;;;5014899;28;20034;-79
2023/04/06 09:15:34;;;;;;;19.95;11.10;;;;;;;;;;5012312;28;20033;-79
2023/04/06 09:17:59;;;;;;;21.35;11.20;;;;;;;;;;5017344;28;20029;-78
2023/04/06 09:20:26;;;;;;;18.88;10.50;;;;;;;;;;5001665;28;20056;-79
2023/04/06 09:22:51;;;;;;;22.85;10.90;;;;;;;;;;4998460;28;20481;-79
2023/04/06 09:25:26;;;;;;;17.88;10.82;;;;;;;;;;4990558;28;20037;-79
2023/04/06 09:28:00;;;;;;;19.35;10.98;;;;;;;;;;5014630;28;20033;-78
2023/04/06 09:30:26;;;;;;;19.80;10.82;;;;;;;;;;5011485;28;20041;-78
2023/04/06 09:32:54;;;;;;;21.00;11.73;;;;;;;;;;4988177;28;20096;-79
2023/04/06 09:35:20;;;;;;;16.38;9.85;;;;;;;;;;4995992;28;20479;-78
2023/04/06 09:37:51;;;;;;;17.50;10.20;;;;;;;;;;4996327;28;20029;-78
2023/04/06 09:40:18;;;;;;;18.88;11.02;;;;;;;;;;4995843;28;20025;-79
2023/04/06 09:42:52;;;;;;;19.25;10.88;;;;;;;;;;5009989;28;20474;-79
2023/04/06 09:45:18;;;;;;;20.70;10.40;;;;;;;;;;5012233;28;20524;-79
2023/04/06 09:47:45;;;;;;;24.27;11.18;;;;;;;;;;5009922;28;20038;-78
2023/04/06 09:50:12;;;;;;;18.80;10.52;;;;;;;;;;5012999;28;20022;-79
2023/04/06 09:52:48;;;;;;;16.90;9.70;;;;;;;;;;4996261;28;20038;-79
2023/04/06 09:55:20;;;;;;;18.08;10.07;;;;;;;;;;4991986;28;20406;-79
2023/04/06 09:58:05;;;;;;;16.88;9.88;;;;;;;;;;5008565;28;20117;-78
2023/04/06 10:00:34;;;;;;;16.33;10.10;;;;;;;;;;5012130;28;20063;-79
2023/04/06 10:03:19;;;;;;;17.27;10.18;;;;;;;;;;4990127;28;20034;-78
2023/04/06 10:06:01;;;;;;;17.02;9.68;;;;;;;;;;5006745;28;20102;-78
2023/04/06 10:08:28;;;;;;;15.32;8.77;;;;;;;;;;5010037;28;20029;-79
2023/04/06 10:10:55;;;;;;;17.13;9.02;;;;;;;;;;5009609;28;20029;-79
2023/04/06 10:13:20;;;;;;;14.55;8.50;;;;;;;;;;4995055;28;20528;-78
2023/04/06 10:15:46;;;;;;;13.90;7.18;;;;;;;;;;5011894;28;20105;-79
2023/04/06 10:18:13;;;;;;;12.68;7.47;;;;;;;;;;5010347;28;20482;-80
2023/04/06 10:21:04;;;;;;;11.32;6.78;;;;;;;;;;5000109;28;20034;-79
2023/04/06 10:23:34;;;;;;;12.82;6.82;;;;;;;;;;4990637;28;20474;-79
2023/04/06 10:26:01;;;;;;;12.50;6.60;;;;;;;;;;4997364;28;20041;-80
2023/04/06 10:28:32;;;;;;;12.00;6.20;;;;;;;;;;5015179;28;20022;-79
2023/04/06 10:31:00;;;;;;;12.73;7.00;;;;;;;;;;4993383;28;20044;-78
2023/04/06 10:33:25;;;;;;;9.73;6.28;;;;;;;;;;4993142;28;20414;-81
2023/04/06 10:35:51;;;;;;;10.57;5.95;;;;;;;;;;5010934;28;20028;-78
2023/04/06 10:38:21;;;;;;;10.65;6.43;;;;;;;;;;4991197;28;20486;-79
2023/04/06 10:40:47;;;;;;;12.20;6.53;;;;;;;;;;4991841;28;20060;-80
2023/04/06 10:43:20;;;;;;;10.93;5.93;;;;;;;;;;5012721;28;20022;-78
2023/04/06 10:45:55;;;;;;;;;;;;;;;;;;4998038;28;20025;-78
2023/04/06 10:48:20;;;;;;;10.88;5.63;;;;;;;;;;5006847;28;20449;-78
2023/04/06 10:50:51;;;;;;;10.15;6.43;;;;;;;;;;4994651;28;20120;-78
2023/04/06 10:53:25;;;;;;;10.27;6.10;;;;;;;;;;5010126;28;20409;-78
2023/04/06 10:55:51;;;;;;;10.80;6.32;;;;;;;;;;5003343;28;20028;-79
2023/04/06 10:58:17;;;;;;;10.95;6.28;;;;;;;;;;5014846;28;20545;-78
2023/04/06 11:00:49;;;;;;;9.88;5.70;;;;;;;;;;4991503;28;20124;-79
2023/04/06 11:03:16;;;;;;;11.03;5.80;;;;;;;;;;4990735;28;20064;-79
2023/04/06 11:05:45;;;;;;;9.13;5.50;;;;;;;;;;5016475;28;20061;-79
2023/04/06 11:08:21;;;;;;;10.93;5.97;;;;;;;;;;5023035;28;20104;-78
2023/04/06 11:10:47;;;;;;;10.13;5.40;;;;;;;;;;5002683;28;20030;-78
2023/04/06 11:13:12;;;;;;;9.73;4.93;;;;;;;;;;5001789;28;20075;-78
2023/04/06 11:15:38;;;;;;;8.65;4.32;;;;;;;;;;5001015;28;20029;-78
2023/04/06 11:18:04;;;;;;;8.00;4.70;;;;;;;;;;5018892;28;20485;-78
2023/04/06 11:20:30;;;;;;;6.90;4.20;;;;;;;;;;5001726;28;20018;-79
2023/04/06 11:22:55;;;;;;;10.93;5.00;;;;;;;;;;5015440;28;20022;-78
2023/04/06 11:25:21;;;;;;;7.38;4.45;;;;;;;;;;4994017;28;20018;-80
2023/04/06 11:27:47;;;;;;;8.57;4.43;;;;;;;;;;5015383;28;20043;-79
2023/04/06 11:30:14;;;;;;;8.68;4.38;;;;;;;;;;5013838;28;20029;-78
2023/04/06 11:32:42;;;;;;;13.25;4.63;;;;;;;;;;4998765;28;20470;-79
2023/04/06 11:35:11;;;;;;;8.77;4.75;;;;;;;;;;5017360;28;20025;-80
2023/04/06 11:37:36;;;;;;;8.43;4.70;;;;;;;;;;5010896;28;20564;-78
2023/04/06 11:40:02;;;;;;;9.73;4.38;;;;;;;;;;5019199;28;20049;-78
2023/04/06 11:42:29;;;;;;;9.02;4.68;;;;;;;;;;5000034;28;20032;-78
2023/04/06 11:44:58;;;;;;;9.23;5.07;;;;;;;;;;4998317;28;20025;-78
2023/04/06 11:47:33;;;;;;;7.88;4.85;;;;;;;;;;5016126;28;20086;-79
2023/04/06 11:50:13;;;;;;;8.38;4.97;;;;;;;;;;5025587;28;20033;-78
2023/04/06 11:52:40;;;;;;;7.68;4.30;;;;;;;;;;5015315;28;20068;-78
2023/04/06 11:55:15;;;;;;;8.02;4.68;;;;;;;;;;5017498;28;20029;-78
2023/04/06 11:57:42;;;;;;;8.13;4.75;;;;;;;;;;4993687;28;20065;-78
2023/04/06 12:00:09;;;;;;;8.40;4.40;;;;;;;;;;4998449;28;20496;-79
2023/04/06 12:02:38;;;;;;;7.78;4.20;;;;;;;;;;5013926;28;20029;-78
2023/04/06 12:05:06;;;;;;;8.02;4.47;;;;;;;;;;4998447;28;20397;-78
2023/04/06 12:07:32;;;;;;;8.15;4.55;;;;;;;;;;5014663;28;20440;-78
2023/04/06 12:10:02;;;;;;;9.02;4.82;;;;;;;;;;4997865;28;20399;-78
2023/04/06 12:12:28;;;;;;;9.27;4.68;;;;;;;;;;5015920;28;20037;-78
2023/04/06 12:14:54;;;;;;;8.63;4.90;;;;;;;;;;4998088;28;20500;-78
2023/04/06 12:17:20;;;;;;;9.90;5.47;;;;;;;;;;5017735;28;20022;-78
2023/04/06 12:19:46;;;;;;;9.50;5.43;;;;;;;;;;5015973;28;20029;-79
2023/04/06 12:22:11;;;;;;;9.18;4.80;;;;;;;;;;5017093;28;20030;-78
2023/04/06 12:24:36;;;;;;;9.18;4.85;;;;;;;;;;5009295;28;20044;-79
2023/04/06 12:27:02;;;;;;;8.82;4.82;;;;;;;;;;5013445;28;20095;-78
2023/04/06 12:29:28;;;;;;;9.23;4.65;;;;;;;;;;5009311;28;20030;-78
2023/04/06 12:31:53;;;;;;;8.52;4.72;;;;;;;;;;5015065;28;20055;-78
2023/04/06 12:34:19;;;;;;;9.65;5.05;;;;;;;;;;5014326;28;20033;-78
2023/04/06 12:36:44;;;;;;;8.50;5.03;;;;;;;;;;5003260;28;20024;-78
2023/04/06 12:39:10;;;;;;;9.85;4.72;;;;;;;;;;5008749;28;20026;-78
2023/04/06 12:41:36;;;;;;;10.02;5.10;;;;;;;;;;4989875;28;20030;-79
2023/04/06 12:44:02;;;;;;;8.32;4.80;;;;;;;;;;5007357;28;20032;-78
2023/04/06 12:46:29;;;;;;;8.07;4.75;;;;;;;;;;5013939;28;20517;-78
2023/04/06 12:48:55;;;;;;;10.45;5.63;;;;;;;;;;4997025;28;20501;-78
2023/04/06 12:51:21;;;;;;;10.23;5.10;;;;;;;;;;4994191;28;20105;-78
2023/04/06 12:53:47;;;;;;;8.75;4.90;;;;;;;;;;5008041;28;20057;-78
2023/04/06 12:56:15;;;;;;;9.10;4.95;;;;;;;;;;4994591;28;20050;-79
2023/04/06 12:58:41;;;;;;;9.93;5.28;;;;;;;;;;5004090;28;20037;-79
2023/04/06 13:01:07;;;;;;;10.50;4.97;;;;;;;;;;4992729;28;21122;-78
2023/04/06 13:03:33;;;;;;;8.43;4.90;;;;;;;;;;5012729;28;20049;-78
2023/04/06 13:06:00;;;;;;;8.77;5.05;;;;;;;;;;5012130;28;20532;-78
2023/04/06 13:08:25;;;;;;;8.57;5.28;;;;;;;;;;5012144;28;20076;-78
2023/04/06 13:10:52;;;;;;;9.90;4.82;;;;;;;;;;5010980;28;20037;-78
2023/04/06 13:13:26;;;;;;;8.05;4.78;;;;;;;;;;5017877;28;20109;-78
2023/04/06 13:15:53;;;;;;;8.95;4.65;;;;;;;;;;5010626;28;20077;-78
2023/04/06 13:18:18;;;;;;;7.72;4.82;;;;;;;;;;4994978;28;20034;-78
2023/04/06 13:20:44;;;;;;;8.50;4.88;;;;;;;;;;4990242;28;20029;-78
2023/04/06 13:23:10;;;;;;;8.25;5.15;;;;;;;;;;4993381;28;20022;-78
2023/04/06 13:25:35;;;;;;;10.20;5.28;;;;;;;;;;5009741;28;20595;-78
2023/04/06 13:28:01;;;;;;;7.90;4.80;;;;;;;;;;5012564;28;20029;-78
2023/04/06 13:30:26;;;;;;;7.32;4.97;;;;;;;;;;5007630;28;20411;-78
2023/04/06 13:32:52;;;;;;;8.73;5.13;;;;;;;;;;4988113;28;20100;-78
2023/04/06 13:35:17;;;;;;;12.75;5.97;;;;;;;;;;5003326;28;20032;-78
2023/04/06 13:37:43;;;;;;;8.77;5.32;;;;;;;;;;4989053;28;20490;-78
2023/04/06 13:40:10;;;;;;;9.85;4.97;;;;;;;;;;4992968;28;20048;-78
2023/04/06 13:42:35;;;;;;;8.95;5.47;;;;;;;;;;5011549;28;20033;-78
2023/04/06 13:45:01;;;;;;;10.02;5.10;;;;;;;;;;5005220;28;20025;-78
2023/04/06 13:47:27;;;;;;;9.45;5.60;;;;;;;;;;5007123;28;20490;-78
2023/04/06 13:49:53;;;;;;;10.32;5.78;;;;;;;;;;5009177;28;20498;-78
2023/04/06 13:52:18;;;;;;;10.13;6.10;;;;;;;;;;5007876;28;20024;-78
2023/04/06 13:54:44;;;;;;;9.57;5.22;;;;;;;;;;5004528;28;20076;-78
2023/04/06 13:57:09;;;;;;;8.52;5.05;;;;;;;;;;4993687;28;20032;-78
2023/04/06 13:59:35;;;;;;;9.25;5.53;;;;;;;;;;4992365;28;20034;-78
2023/04/06 14:02:01;;;;;;;10.20;5.90;;;;;;;;;;5010323;28;20049;-78
2023/04/06 14:04:27;;;;;;;10.15;5.10;;;;;;;;;;5002876;28;20095;-78
2023/04/06 14:06:52;;;;;;;8.90;5.40;;;;;;;;;;4990785;28;20018;-78
2023/04/06 14:09:18;;;;;;;10.50;5.28;;;;;;;;;;4987685;28;20120;-79
2023/04/06 14:11:43;;;;;;;8.68;4.93;;;;;;;;;;4989297;28;20482;-79
2023/04/06 14:14:09;;;;;;;12.07;5.65;;;;;;;;;;4987941;28;20033;-77
2023/04/06 14:16:34;;;;;;;9.23;5.50;;;;;;;;;;4992683;28;20026;-77
2023/04/06 14:18:59;;;;;;;8.23;5.25;;;;;;;;;;4991632;28;20057;-77
2023/04/06 14:21:26;;;;;;;10.77;4.95;;;;;;;;;;4992041;28;20042;-77
2023/04/06 14:23:52;;;;;;;10.57;5.57;;;;;;;;;;4990824;28;20049;-77
2023/04/06 14:26:17;;;;;;;10.02;5.75;;;;;;;;;;5006903;28;20084;-77